Time;durP1;ratioP1;P1;durP2;ratioP2;P2;SDS_P1;SDS_P2;PMS_P1;PMS_P2;Temp;Humidity;BMP_temperature;BMP_pressure;BME280_temperature;BME280_humidity;BME280_pressure;Samples;Min_cycle;Max_cycle;Signal;HPM_P1;HPM_P2
2023/01/09 00:00:15;;;;;;;3.30;1.25;;;7.20;99.90;;;;;;4953721;28;20484;-79
2023/01/09 00:02:43;;;;;;;6.30;1.40;;;7.20;99.90;;;;;;4956564;28;20881;-80
2023/01/09 00:05:11;;;;;;;2.90;1.50;;;6.30;99.90;;;;;;4956927;28;20428;-79
2023/01/09 00:07:36;;;;;;;4.10;1.20;;;7.00;99.90;;;;;;4956548;28;20439;-76
2023/01/09 00:10:04;;;;;;;3.03;1.00;;;7.10;99.90;;;;;;4955546;28;20424;-78
2023/01/09 00:12:29;;;;;;;2.92;0.95;;;7.00;99.90;;;;;;4955645;28;20440;-77
2023/01/09 00:14:55;;;;;;;2.58;0.82;;;7.80;99.90;;;;;;4954500;28;20432;-80
2023/01/09 00:17:21;;;;;;;4.20;1.30;;;7.30;99.90;;;;;;4956602;28;20463;-80
2023/01/09 00:19:46;;;;;;;3.60;1.23;;;7.10;99.90;;;;;;4954506;28;20863;-79
2023/01/09 00:22:12;;;;;;;2.15;0.88;;;7.10;99.90;;;;;;4954456;28;20431;-80
2023/01/09 00:24:38;;;;;;;3.70;0.70;;;6.90;99.90;;;;;;4955348;28;20436;-79
2023/01/09 00:27:04;;;;;;;2.30;0.80;;;6.80;99.90;;;;;;4956354;28;20471;-79
2023/01/09 00:29:30;;;;;;;2.85;0.80;;;7.70;99.90;;;;;;4954251;28;20961;-78
2023/01/09 00:31:55;;;;;;;3.65;0.95;;;7.10;99.90;;;;;;4953762;28;20440;-79
2023/01/09 00:34:21;;;;;;;5.05;1.00;;;7.20;99.90;;;;;;4956161;28;20784;-77
2023/01/09 00:36:47;;;;;;;3.05;0.98;;;6.90;99.90;;;;;;4955491;28;20428;-83
2023/01/09 00:39:13;;;;;;;1.80;0.63;;;7.10;99.90;;;;;;4950250;28;20471;-81
2023/01/09 00:41:45;;;;;;;2.10;0.67;;;7.00;99.90;;;;;;4954960;28;20463;-80
2023/01/09 00:44:33;;;;;;;2.23;0.93;;;6.90;99.90;;;;;;4953860;28;20458;-80
2023/01/09 00:47:04;;;;;;;2.35;0.60;;;6.90;99.90;;;;;;4956798;28;20424;-80
2023/01/09 00:49:34;;;;;;;2.55;1.08;;;6.90;99.90;;;;;;4938904;28;20443;-78
2023/01/09 00:52:01;;;;;;;3.20;0.85;;;6.90;99.90;;;;;;4951537;28;20440;-78
2023/01/09 00:54:27;;;;;;;1.77;0.90;;;7.10;99.90;;;;;;4952587;28;20816;-80
2023/01/09 00:56:54;;;;;;;1.80;0.70;;;7.10;99.90;;;;;;4955656;28;20957;-81
2023/01/09 00:59:20;;;;;;;3.38;0.73;;;7.00;99.90;;;;;;4953587;28;20505;-81
2023/01/09 01:01:45;;;;;;;2.10;0.90;;;7.00;99.90;;;;;;4954291;28;20831;-79
2023/01/09 01:09:39;;;;;;;3.85;1.42;;;7.80;99.90;;;;;;4956939;28;20943;-79
2023/01/09 01:12:05;;;;;;;1.90;0.82;;;7.30;99.90;;;;;;4957682;28;20448;-80
2023/01/09 01:14:36;;;;;;;3.83;1.17;;;6.90;99.90;;;;;;4959248;28;20487;-80
2023/01/09 01:17:02;;;;;;;4.82;1.63;;;7.00;99.90;;;;;;4959239;28;20443;-77
2023/01/09 01:19:28;;;;;;;6.20;1.33;;;7.10;99.90;;;;;;4952721;28;20460;-79
2023/01/09 01:21:54;;;;;;;3.50;1.63;;;7.00;99.90;;;;;;4958486;28;20439;-80
2023/01/09 01:24:19;;;;;;;4.70;1.50;;;6.90;99.90;;;;;;4959654;28;20446;-80
2023/01/09 01:26:46;;;;;;;4.93;1.65;;;6.90;99.90;;;;;;4959730;28;20942;-81
2023/01/09 01:29:12;;;;;;;6.40;1.47;;;7.10;99.90;;;;;;4957631;28;20511;-79
2023/01/09 01:31:38;;;;;;;3.53;1.27;;;7.10;99.90;;;;;;4958700;28;20435;-80
2023/01/09 01:34:03;;;;;;;3.10;1.30;;;6.80;99.90;;;;;;4958050;28;20432;-79
2023/01/09 01:36:29;;;;;;;5.60;2.03;;;6.80;99.90;;;;;;4959143;28;20432;-79
2023/01/09 01:38:55;;;;;;;5.82;2.10;;;6.80;99.90;;;;;;4953834;28;21020;-81
2023/01/09 01:41:28;;;;;;;3.78;1.60;;;6.90;99.90;;;;;;4958067;28;20432;-79
2023/01/09 01:44:41;;;;;;;5.55;1.42;;;7.00;99.90;;;;;;4956693;28;20486;-78
2023/01/09 01:47:07;;;;;;;5.10;1.67;;;6.90;99.90;;;;;;4944748;28;20467;-79
2023/01/09 01:49:32;;;;;;;5.85;1.80;;;7.00;99.90;;;;;;4958110;28;20874;-76
2023/01/09 01:51:58;;;;;;;3.10;1.30;;;6.90;99.90;;;;;;4956349;28;20440;-79
2023/01/09 01:54:28;;;;;;;5.25;1.63;;;6.60;99.90;;;;;;4957772;28;20812;-79
2023/01/09 01:56:57;;;;;;;4.82;1.45;;;6.90;99.90;;;;;;4959628;28;20511;-77
2023/01/09 01:59:50;;;;;;;4.68;1.95;;;6.80;99.90;;;;;;4954249;28;21005;-78
2023/01/09 02:02:22;;;;;;;5.72;1.70;;;6.60;99.90;;;;;;4944912;28;20439;-81
2023/01/09 02:04:51;;;;;;;4.28;1.42;;;6.40;99.90;;;;;;4960267;28;20432;-80
2023/01/09 02:07:17;;;;;;;5.55;1.58;;;6.50;99.90;;;;;;4958285;28;21177;-79
2023/01/09 02:09:45;;;;;;;4.90;1.70;;;6.60;99.90;;;;;;4958131;28;20475;-79
2023/01/09 02:12:23;;;;;;;7.15;2.17;;;6.30;99.90;;;;;;4951596;28;20564;-80
2023/01/09 02:14:53;;;;;;;6.53;1.70;;;6.30;99.90;;;;;;4952448;28;20439;-78
2023/01/09 02:17:50;;;;;;;6.13;2.03;;;7.40;99.90;;;;;;4954028;28;20895;-80
2023/01/09 02:20:34;;;;;;;5.53;1.42;;;6.20;99.90;;;;;;4949212;28;20432;-80
2023/01/09 02:23:27;;;;;;;5.88;2.05;;;6.50;99.90;;;;;;4957027;28;20499;-77
2023/01/09 02:26:21;;;;;;;6.05;1.70;;;6.20;99.90;;;;;;4957146;28;20436;-79
2023/01/09 02:29:10;;;;;;;4.63;1.52;;;6.30;99.90;;;;;;4956123;28;20494;-78
2023/01/09 02:31:44;;;;;;;7.65;1.50;;;6.20;99.90;;;;;;4901328;28;20424;-81
2023/01/09 02:34:28;;;;;;;5.30;1.73;;;6.10;99.90;;;;;;4958204;28;20941;-81
2023/01/09 02:37:26;;;;;;;7.85;2.20;;;6.10;99.90;;;;;;4956763;28;20526;-81
2023/01/09 02:40:17;;;;;;;4.32;1.50;;;6.30;99.90;;;;;;4952303;28;20442;-82
2023/01/09 02:42:46;;;;;;;4.85;1.80;;;6.20;99.90;;;;;;4950674;28;20440;-79
2023/01/09 02:45:11;;;;;;;8.48;2.00;;;5.90;99.90;;;;;;4957922;28;20511;-79
2023/01/09 02:47:40;;;;;;;6.70;1.75;;;6.20;99.90;;;;;;4955979;28;21081;-80
2023/01/09 02:50:17;;;;;;;7.25;1.90;;;6.00;99.90;;;;;;4957576;28;20491;-81
2023/01/09 02:53:20;;;;;;;6.88;2.28;;;6.00;99.90;;;;;;4957827;28;20522;-79
2023/01/09 02:56:30;;;;;;;7.45;1.90;;;6.10;99.90;;;;;;4956251;28;21309;-80
2023/01/09 02:59:02;;;;;;;7.30;2.90;;;5.80;99.90;;;;;;4956170;28;20471;-79
2023/01/09 03:01:45;;;;;;;5.35;1.45;;;5.90;99.90;;;;;;4955838;28;20498;-79
2023/01/09 03:04:27;;;;;;;6.85;2.10;;;6.00;99.90;;;;;;4954611;28;20459;-80
2023/01/09 03:07:17;;;;;;;5.38;2.20;;;5.90;99.90;;;;;;4957092;28;20428;-78
2023/01/09 03:09:47;;;;;;;7.53;2.60;;;6.10;99.90;;;;;;4955429;28;20479;-82
2023/01/09 03:12:17;;;;;;;4.63;1.70;;;6.00;99.90;;;;;;4957085;28;20522;-79
2023/01/09 03:14:56;;;;;;;8.82;2.10;;;5.80;99.90;;;;;;4954030;28;20499;-81
2023/01/09 03:17:35;;;;;;;7.50;2.20;;;5.90;99.90;;;;;;4956065;28;20435;-80
2023/01/09 03:20:06;;;;;;;5.55;2.00;;;6.00;99.90;;;;;;4957643;28;20436;-81
2023/01/09 03:22:31;;;;;;;8.38;1.90;;;5.90;99.90;;;;;;4956925;28;20459;-81
2023/01/09 03:24:57;;;;;;;6.95;2.38;;;5.60;99.90;;;;;;4954208;28;20443;-80
2023/01/09 03:27:23;;;;;;;7.70;2.00;;;5.60;99.90;;;;;;4955787;28;20424;-79
2023/01/09 03:29:50;;;;;;;5.40;2.05;;;5.60;99.90;;;;;;4955998;28;20440;-79
2023/01/09 03:32:15;;;;;;;6.50;2.25;;;5.90;99.90;;;;;;4956342;28;20428;-82
2023/01/09 03:34:41;;;;;;;6.90;2.22;;;5.80;99.90;;;;;;4954800;28;20724;-81
2023/01/09 03:37:07;;;;;;;6.57;2.30;;;5.70;99.90;;;;;;4953208;28;20567;-78
2023/01/09 03:39:32;;;;;;;11.32;2.65;;;5.60;99.90;;;;;;4956265;28;20874;-80
2023/01/09 03:41:58;;;;;;;6.65;2.70;;;5.60;99.90;;;;;;4955290;28;20435;-80
2023/01/09 03:44:24;;;;;;;7.32;2.28;;;5.50;99.90;;;;;;4955168;28;20448;-82
2023/01/09 03:46:49;;;;;;;8.93;3.05;;;5.50;99.90;;;;;;4958015;28;20432;-80
2023/01/09 03:49:16;;;;;;;6.13;2.47;;;5.70;99.90;;;;;;4952076;28;20458;-79
2023/01/09 03:51:42;;;;;;;7.85;2.85;;;5.30;99.90;;;;;;4957550;28;20818;-79
2023/01/09 03:54:08;;;;;;;6.85;3.22;;;5.30;99.90;;;;;;4954090;28;20444;-80
2023/01/09 03:56:34;;;;;;;7.03;2.67;;;5.50;99.90;;;;;;4955851;28;20439;-80
2023/01/09 03:58:59;;;;;;;7.90;3.47;;;5.20;99.90;;;;;;4956536;28;20463;-80
2023/01/09 04:01:25;;;;;;;7.53;2.90;;;5.70;99.90;;;;;;4955472;28;20432;-79
2023/01/09 04:03:50;;;;;;;6.27;2.40;;;5.20;99.90;;;;;;4956845;28;20440;-80
2023/01/09 04:06:16;;;;;;;4.80;2.40;;;5.20;99.90;;;;;;4950014;28;20499;-80
2023/01/09 04:08:42;;;;;;;7.73;2.83;;;5.50;99.90;;;;;;4957394;28;20436;-80
2023/01/09 04:11:08;;;;;;;8.87;3.03;;;5.50;99.90;;;;;;4955727;28;20431;-79
2023/01/09 04:13:34;;;;;;;5.47;2.55;;;5.80;99.90;;;;;;4955268;28;20448;-80
2023/01/09 04:15:59;;;;;;;9.00;3.53;;;5.50;99.90;;;;;;4955865;28;20420;-78
2023/01/09 04:18:25;;;;;;;8.23;3.97;;;5.20;99.90;;;;;;4957221;28;20764;-79
2023/01/09 04:20:51;;;;;;;6.10;3.35;;;5.40;99.90;;;;;;4956354;28;20430;-79
2023/01/09 04:23:16;;;;;;;7.90;3.42;;;5.90;99.90;;;;;;4955932;28;20455;-80
2023/01/09 04:25:42;;;;;;;10.30;3.80;;;5.30;99.90;;;;;;4955030;28;20523;-78
2023/01/09 04:28:07;;;;;;;8.77;3.63;;;5.50;99.90;;;;;;4955898;28;20431;-81
2023/01/09 04:30:33;;;;;;;9.10;3.97;;;5.30;99.90;;;;;;4956228;28;20428;-80
2023/01/09 04:32:59;;;;;;;10.45;4.55;;;5.70;99.90;;;;;;4956917;28;20518;-80
2023/01/09 04:35:24;;;;;;;7.10;3.60;;;5.40;99.90;;;;;;4953302;28;20456;-80
2023/01/09 04:37:50;;;;;;;9.13;4.33;;;5.60;99.90;;;;;;4955090;28;20499;-80
2023/01/09 04:40:16;;;;;;;9.90;4.23;;;5.50;99.90;;;;;;4955189;28;20438;-80
2023/01/09 04:42:42;;;;;;;6.78;3.85;;;5.40;99.90;;;;;;4954877;28;20831;-79
2023/01/09 04:45:10;;;;;;;6.70;4.13;;;5.70;99.90;;;;;;4954565;28;20448;-81
2023/01/09 04:47:35;;;;;;;8.70;4.05;;;5.60;99.90;;;;;;4955405;28;20511;-79
2023/01/09 04:50:01;;;;;;;11.02;4.53;;;5.60;99.90;;;;;;4952742;28;20555;-78
2023/01/09 04:52:27;;;;;;;8.48;4.35;;;5.10;99.90;;;;;;4954683;28;20451;-79
2023/01/09 04:54:53;;;;;;;8.80;4.40;;;5.30;99.90;;;;;;4953986;28;20446;-80
2023/01/09 04:57:18;;;;;;;7.70;4.63;;;5.20;99.90;;;;;;4956094;28;20431;-81
2023/01/09 04:59:44;;;;;;;10.03;4.57;;;5.10;99.90;;;;;;4955332;28;20448;-79
2023/01/09 05:02:10;;;;;;;10.20;5.43;;;5.50;99.90;;;;;;4955799;28;20931;-82
2023/01/09 05:04:36;;;;;;;13.83;5.47;;;5.10;99.90;;;;;;4955045;28;20432;-80
2023/01/09 05:07:01;;;;;;;10.27;5.20;;;6.20;99.90;;;;;;4955578;28;20491;-77
2023/01/09 05:12:03;;;;;;;12.10;6.13;;;5.00;99.90;;;;;;4352703;23;20494;-70
2023/01/09 05:14:30;;;;;;;9.80;5.28;;;5.50;99.90;;;;;;4946752;28;20634;-71
2023/01/09 05:16:56;;;;;;;9.80;5.72;;;5.40;99.90;;;;;;4947678;28;21028;-71
2023/01/09 05:19:22;;;;;;;9.90;5.68;;;5.50;99.90;;;;;;4956635;28;20447;-72
2023/01/09 05:21:48;;;;;;;12.18;6.38;;;5.30;99.90;;;;;;4956995;28;20443;-70
2023/01/09 05:24:14;;;;;;;9.18;5.78;;;5.20;99.90;;;;;;4950136;28;20456;-71
2023/01/09 05:26:39;;;;;;;10.43;5.70;;;5.20;99.90;;;;;;4954377;28;20524;-71
2023/01/09 05:29:05;;;;;;;10.13;6.77;;;5.00;99.90;;;;;;4953809;28;20431;-71
2023/01/09 05:31:30;;;;;;;11.67;7.03;;;5.30;99.90;;;;;;4957375;28;20913;-70
2023/01/09 05:33:58;;;;;;;11.13;7.77;;;5.00;99.90;;;;;;4952509;28;20878;-71
2023/01/09 05:36:23;;;;;;;13.65;7.97;;;4.90;99.90;;;;;;4959107;28;20453;-71
2023/01/09 05:38:49;;;;;;;12.63;8.95;;;5.30;99.90;;;;;;4959343;28;20415;-71
2023/01/09 05:41:15;;;;;;;13.23;8.85;;;5.10;99.90;;;;;;4954467;28;20432;-72
2023/01/09 05:43:40;;;;;;;13.70;9.07;;;4.80;99.90;;;;;;4955173;28;21009;-71
2023/01/09 05:46:06;;;;;;;15.07;9.60;;;5.20;99.90;;;;;;4952832;28;21287;-70
2023/01/09 05:48:32;;;;;;;14.15;10.05;;;4.90;99.90;;;;;;4957519;28;20443;-72
2023/01/09 05:50:57;;;;;;;14.55;10.70;;;5.20;99.90;;;;;;4952781;28;20565;-71
2023/01/09 05:53:23;;;;;;;17.08;11.45;;;5.20;99.90;;;;;;4954594;28;20462;-70
2023/01/09 05:55:49;;;;;;;13.80;10.65;;;5.20;99.90;;;;;;4955755;28;20440;-72
2023/01/09 05:58:14;;;;;;;17.05;12.13;;;5.00;99.90;;;;;;4947331;28;20450;-71
2023/01/09 06:00:40;;;;;;;16.80;12.35;;;5.10;99.90;;;;;;4957400;28;20483;-71
2023/01/09 06:03:06;;;;;;;17.55;12.18;;;5.50;99.90;;;;;;4957668;28;20447;-70
2023/01/09 06:05:32;;;;;;;16.60;11.65;;;5.60;99.90;;;;;;4959502;28;20818;-71
2023/01/09 06:07:58;;;;;;;15.80;13.23;;;5.30;99.90;;;;;;4958974;28;20486;-71
2023/01/09 06:10:24;;;;;;;14.65;11.55;;;5.70;99.90;;;;;;4955554;28;20443;-70
2023/01/09 06:12:50;;;;;;;20.17;13.23;;;5.50;99.90;;;;;;4956040;28;20506;-71
2023/01/09 06:15:16;;;;;;;24.33;13.48;;;5.40;99.90;;;;;;4957120;28;20432;-70
2023/01/09 06:17:42;;;;;;;15.77;13.43;;;5.50;99.90;;;;;;4960154;28;20518;-71
2023/01/09 06:20:09;;;;;;;15.23;13.05;;;5.50;99.90;;;;;;4953298;28;20436;-71
2023/01/09 06:22:35;;;;;;;18.27;12.43;;;5.40;99.90;;;;;;4959996;28;20463;-70
2023/01/09 06:25:01;;;;;;;19.50;12.50;;;5.60;99.90;;;;;;4957667;28;20514;-72
2023/01/09 06:27:27;;;;;;;15.18;12.57;;;5.80;99.90;;;;;;4957016;28;20455;-71
2023/01/09 06:29:53;;;;;;;17.85;13.00;;;5.70;99.90;;;;;;4959424;28;20435;-71
2023/01/09 06:32:18;;;;;;;17.83;13.02;;;5.90;99.90;;;;;;4947296;28;20438;-72
2023/01/09 06:34:44;;;;;;;18.75;13.73;;;5.70;99.90;;;;;;4953414;28;20479;-70
2023/01/09 06:37:10;;;;;;;16.33;12.77;;;5.50;99.90;;;;;;4960133;28;20490;-71
2023/01/09 06:39:35;;;;;;;15.45;12.18;;;5.60;99.90;;;;;;4958624;28;20442;-69
2023/01/09 06:42:01;;;;;;;16.70;12.63;;;5.80;99.90;;;;;;4950339;28;20435;-71
2023/01/09 06:44:27;;;;;;;17.95;12.95;;;5.50;99.90;;;;;;4951416;28;20578;-71
2023/01/09 06:46:53;;;;;;;15.48;11.80;;;5.50;99.90;;;;;;4954034;28;20850;-71
2023/01/09 06:49:22;;;;;;;17.50;11.93;;;5.60;99.90;;;;;;4959102;28;20522;-70
2023/01/09 06:51:49;;;;;;;18.63;12.57;;;5.80;99.90;;;;;;4957846;28;20511;-72
2023/01/09 06:54:16;;;;;;;13.10;10.77;;;5.60;99.90;;;;;;4951564;28;20515;-71
2023/01/09 06:56:42;;;;;;;18.97;11.20;;;5.80;99.90;;;;;;4960019;28;20480;-70
2023/01/09 06:59:08;;;;;;;14.25;10.38;;;5.70;99.90;;;;;;4955648;28;20416;-71
2023/01/09 07:01:33;;;;;;;13.95;10.80;;;5.50;99.90;;;;;;4958003;28;20997;-72
2023/01/09 07:03:59;;;;;;;16.42;10.70;;;5.50;99.90;;;;;;4953185;28;20499;-72
2023/01/09 07:06:25;;;;;;;11.95;10.35;;;5.50;99.90;;;;;;4946222;28;20428;-71
2023/01/09 07:08:50;;;;;;;12.68;10.25;;;5.70;99.90;;;;;;4959264;28;20523;-71
2023/01/09 07:11:16;;;;;;;13.07;10.02;;;5.60;99.90;;;;;;4954004;28;20479;-72
2023/01/09 07:13:41;;;;;;;13.43;9.95;;;5.50;99.90;;;;;;4958464;28;20489;-71
2023/01/09 07:16:07;;;;;;;15.93;10.82;;;5.70;99.90;;;;;;4950887;28;20437;-71
2023/01/09 07:18:33;;;;;;;13.70;9.02;;;5.20;99.90;;;;;;4955607;28;20428;-70
2023/01/09 07:20:59;;;;;;;15.13;9.45;;;5.40;99.90;;;;;;4958858;28;20427;-69
2023/01/09 07:23:25;;;;;;;12.80;9.60;;;5.30;99.90;;;;;;4957091;28;20498;-71
2023/01/09 07:25:51;;;;;;;13.18;9.45;;;5.60;99.90;;;;;;4956310;28;20436;-72
2023/01/09 07:28:17;;;;;;;14.15;8.95;;;5.60;99.90;;;;;;4957098;28;20519;-70
2023/01/09 07:30:42;;;;;;;12.68;8.60;;;5.50;99.90;;;;;;4940934;28;20539;-71
2023/01/09 07:33:08;;;;;;;11.55;7.75;;;5.50;99.90;;;;;;4956865;28;20503;-71
2023/01/09 07:35:34;;;;;;;11.40;8.38;;;5.40;99.90;;;;;;4947095;28;20434;-69
2023/01/09 07:37:59;;;;;;;15.88;9.18;;;5.40;99.90;;;;;;4957565;28;20437;-70
2023/01/09 07:40:25;;;;;;;11.55;8.00;;;5.30;99.90;;;;;;4956870;28;20436;-70
2023/01/09 07:42:52;;;;;;;12.70;8.10;;;5.70;99.90;;;;;;4956686;28;20444;-70
2023/01/09 07:45:18;;;;;;;10.35;8.40;;;5.70;99.90;;;;;;4948253;28;20520;-72
2023/01/09 07:47:43;;;;;;;10.10;7.70;;;5.80;99.90;;;;;;4951567;28;20796;-71
2023/01/09 07:50:09;;;;;;;12.80;7.73;;;5.30;99.90;;;;;;4951409;28;20504;-73
2023/01/09 07:52:35;;;;;;;11.77;8.45;;;5.40;99.90;;;;;;4955699;28;20428;-71
2023/01/09 07:55:01;;;;;;;13.90;7.93;;;5.60;99.90;;;;;;4955783;28;20509;-72
2023/01/09 07:57:28;;;;;;;11.60;7.93;;;5.60;99.90;;;;;;4933034;28;20495;-72
2023/01/09 07:59:54;;;;;;;10.38;7.75;;;5.20;99.90;;;;;;4954311;28;20827;-73
2023/01/09 08:02:19;;;;;;;11.10;8.30;;;5.70;99.90;;;;;;4945325;28;20547;-71
2023/01/09 08:04:45;;;;;;;15.33;8.67;;;5.40;99.90;;;;;;4954011;28;20468;-71
2023/01/09 08:07:11;;;;;;;12.67;8.47;;;5.70;99.90;;;;;;4952011;28;20961;-71
2023/01/09 08:09:37;;;;;;;14.10;8.80;;;5.70;99.90;;;;;;4953400;28;22027;-71
2023/01/09 08:12:03;;;;;;;11.00;8.30;;;5.40;99.90;;;;;;4955588;28;20985;-72
2023/01/09 08:14:29;;;;;;;13.13;9.02;;;5.50;99.90;;;;;;4956219;28;20467;-70
2023/01/09 08:16:54;;;;;;;12.75;8.55;;;5.80;99.90;;;;;;4952414;28;20511;-70
2023/01/09 08:19:20;;;;;;;11.82;8.25;;;5.50;99.90;;;;;;4957020;28;20440;-71
2023/01/09 08:21:46;;;;;;;10.35;8.13;;;5.80;99.90;;;;;;4954483;28;20433;-71
2023/01/09 08:24:11;;;;;;;12.30;9.30;;;5.50;99.90;;;;;;4954332;28;20440;-70
2023/01/09 08:26:37;;;;;;;12.13;8.73;;;5.60;99.90;;;;;;4951970;28;20968;-70
2023/01/09 08:29:03;;;;;;;10.93;8.18;;;5.90;99.90;;;;;;4956657;28;20487;-69
2023/01/09 08:31:28;;;;;;;10.55;8.38;;;5.90;99.90;;;;;;4955377;28;20436;-70
2023/01/09 08:33:54;;;;;;;16.40;9.98;;;5.50;99.90;;;;;;4956473;28;20558;-70
2023/01/09 08:36:20;;;;;;;11.40;7.65;;;5.70;99.90;;;;;;4941600;28;20990;-71
2023/01/09 08:38:45;;;;;;;13.52;7.57;;;5.90;99.90;;;;;;4955073;28;20531;-70
2023/01/09 08:49:25;;;;;;;9.70;7.03;;;6.10;99.90;;;;;;4957443;28;20503;-72
2023/01/09 08:51:50;;;;;;;10.50;6.77;;;5.90;99.90;;;;;;4955921;28;20432;-69
2023/01/09 08:54:16;;;;;;;10.67;7.20;;;6.30;99.90;;;;;;4939531;28;20493;-71
2023/01/09 08:56:42;;;;;;;10.67;5.83;;;6.20;99.90;;;;;;4951059;28;20840;-70
2023/01/09 08:59:09;;;;;;;9.77;6.70;;;5.90;99.90;;;;;;4956711;28;20499;-71
2023/01/09 09:01:35;;;;;;;14.40;6.50;;;6.00;99.90;;;;;;4949276;28;20460;-70
2023/01/09 09:04:01;;;;;;;9.03;5.57;;;6.10;99.90;;;;;;4948547;28;20534;-73
2023/01/09 09:06:27;;;;;;;12.77;6.00;;;6.40;99.90;;;;;;4956624;28;20431;-71
2023/01/09 09:08:53;;;;;;;10.57;5.68;;;6.10;99.90;;;;;;4957798;28;20412;-69
2023/01/09 09:11:18;;;;;;;10.10;6.22;;;6.10;99.90;;;;;;4955457;28;20412;-69
2023/01/09 09:13:44;;;;;;;12.98;5.68;;;6.30;99.90;;;;;;4952896;28;20976;-71
2023/01/09 09:16:09;;;;;;;8.52;4.90;;;6.20;99.90;;;;;;4956032;28;20899;-71
2023/01/09 09:18:35;;;;;;;10.95;5.22;;;6.60;99.90;;;;;;4955046;28;20436;-69
2023/01/09 09:21:01;;;;;;;7.07;4.40;;;6.60;99.90;;;;;;4956189;28;20873;-70
2023/01/09 09:23:26;;;;;;;8.98;4.40;;;6.40;99.90;;;;;;4952316;28;20989;-70
2023/01/09 09:25:52;;;;;;;9.73;5.07;;;6.70;99.90;;;;;;4935840;29;20630;-71
2023/01/09 09:28:17;;;;;;;9.83;4.80;;;6.70;99.90;;;;;;4935713;28;20425;-70
2023/01/09 09:30:43;;;;;;;11.70;4.60;;;6.70;99.90;;;;;;4958395;28;20443;-70
2023/01/09 09:33:09;;;;;;;11.63;4.10;;;6.90;99.90;;;;;;4957669;28;20803;-71
2023/01/09 09:35:35;;;;;;;6.23;4.23;;;6.80;99.90;;;;;;4943181;28;20435;-70
2023/01/09 09:38:03;;;;;;;8.38;4.25;;;6.90;99.90;;;;;;4957336;28;20448;-70
2023/01/09 09:40:52;;;;;;;7.97;4.28;;;6.70;99.90;;;;;;4960373;28;20844;-69
2023/01/09 09:46:57;;;;;;;9.82;4.60;;;6.80;99.90;;;;;;4958570;28;20998;-71
2023/01/09 09:49:28;;;;;;;9.38;4.15;;;6.90;99.90;;;;;;4953942;28;20523;-71
2023/01/09 09:52:30;;;;;;;7.57;4.63;;;7.00;99.90;;;;;;4954989;28;20516;-70
2023/01/09 09:55:01;;;;;;;8.45;3.80;;;7.00;99.90;;;;;;4930458;28;20452;-70
2023/01/09 09:57:34;;;;;;;8.93;3.70;;;7.10;99.90;;;;;;4950793;28;20578;-70
2023/01/09 10:00:01;;;;;;;7.20;3.75;;;7.00;99.90;;;;;;4956343;28;20431;-72
2023/01/09 10:02:41;;;;;;;8.03;3.90;;;6.90;99.90;;;;;;4958870;28;20558;-69
2023/01/09 10:05:16;;;;;;;7.90;3.80;;;7.00;99.90;;;;;;4958126;28;20994;-71
2023/01/09 10:07:47;;;;;;;6.97;3.38;;;7.10;99.90;;;;;;4941060;28;20908;-71
2023/01/09 10:10:27;;;;;;;9.05;3.90;;;7.20;99.90;;;;;;4954620;28;21318;-70
2023/01/09 10:12:56;;;;;;;8.23;3.95;;;7.30;99.90;;;;;;4958244;28;20487;-70
2023/01/09 10:15:44;;;;;;;6.60;3.20;;;7.20;99.90;;;;;;4958060;28;21405;-71
2023/01/09 10:18:45;;;;;;;6.80;3.30;;;7.10;99.90;;;;;;4940276;28;20410;-73
2023/01/09 10:21:20;;;;;;;8.45;3.67;;;7.10;99.90;;;;;;4950690;28;20476;-72
2023/01/09 10:24:08;;;;;;;7.03;3.33;;;6.90;99.90;;;;;;4960680;28;20440;-71
2023/01/09 10:26:45;;;;;;;9.30;3.60;;;7.20;99.90;;;;;;4958323;28;20436;-72
2023/01/09 10:29:29;;;;;;;6.65;3.20;;;7.10;99.90;;;;;;4954931;28;21009;-73
2023/01/09 10:32:00;;;;;;;10.98;4.13;;;7.10;99.90;;;;;;4957821;28;20435;-71
2023/01/09 10:35:00;;;;;;;9.18;3.50;;;7.20;99.90;;;;;;4937317;28;20523;-72
2023/01/09 10:37:29;;;;;;;8.55;4.20;;;7.20;99.90;;;;;;4957015;28;20408;-70
2023/01/09 10:40:20;;;;;;;8.17;3.60;;;7.10;99.90;;;;;;4949944;28;20950;-69
2023/01/09 10:42:55;;;;;;;9.02;3.78;;;7.00;99.90;;;;;;4960986;28;20469;-71
2023/01/09 10:45:40;;;;;;;7.13;3.53;;;7.00;99.90;;;;;;4933247;28;21047;-72
2023/01/09 10:48:19;;;;;;;9.27;3.25;;;7.20;99.90;;;;;;4953980;28;20834;-72
2023/01/09 10:50:49;;;;;;;12.93;4.35;;;7.20;99.90;;;;;;4955382;28;20956;-74
2023/01/09 10:53:22;;;;;;;7.03;3.80;;;7.00;99.90;;;;;;4951937;28;20437;-71
2023/01/09 10:55:53;;;;;;;9.68;4.00;;;7.10;99.90;;;;;;4956259;28;20489;-72
2023/01/09 10:58:21;;;;;;;7.70;4.22;;;7.40;99.90;;;;;;4957053;28;20898;-71
2023/01/09 11:00:48;;;;;;;7.05;3.90;;;6.90;99.90;;;;;;4958724;28;20933;-71
2023/01/09 11:03:17;;;;;;;10.35;3.95;;;6.90;99.90;;;;;;4955925;28;20527;-71
2023/01/09 11:05:51;;;;;;;9.52;4.13;;;6.90;99.90;;;;;;4956581;28;20420;-71
2023/01/09 11:08:27;;;;;;;6.97;4.30;;;7.00;99.90;;;;;;4956493;28;20447;-71
2023/01/09 11:10:55;;;;;;;9.27;3.45;;;6.80;99.90;;;;;;4957255;28;20420;-70
2023/01/09 11:13:31;;;;;;;7.90;4.68;;;7.00;99.90;;;;;;4956342;28;20448;-71
2023/01/09 11:16:21;;;;;;;10.38;3.53;;;7.10;99.90;;;;;;4938071;29;20414;-71
2023/01/09 11:18:51;;;;;;;7.82;3.53;;;7.00;99.90;;;;;;4953929;28;21009;-71
2023/01/09 11:21:37;;;;;;;8.55;3.83;;;6.90;99.90;;;;;;4939347;28;20422;-70
2023/01/09 11:24:17;;;;;;;6.95;3.95;;;7.20;99.90;;;;;;4946497;28;20447;-71
2023/01/09 11:26:44;;;;;;;9.73;4.13;;;6.90;99.90;;;;;;4956387;28;20423;-71
2023/01/09 11:29:12;;;;;;;7.05;4.18;;;7.20;99.90;;;;;;4940406;28;20422;-71
2023/01/09 11:31:40;;;;;;;7.38;3.97;;;7.10;99.90;;;;;;4952605;28;20849;-70
2023/01/09 11:34:15;;;;;;;10.70;4.40;;;7.20;99.90;;;;;;4952242;28;21265;-72
2023/01/09 11:36:41;;;;;;;9.95;4.32;;;7.20;99.90;;;;;;4951067;28;20428;-71
2023/01/09 11:39:24;;;;;;;7.57;4.37;;;7.20;99.90;;;;;;4956737;28;20416;-70
2023/01/09 11:42:04;;;;;;;7.90;4.63;;;7.20;99.90;;;;;;4957436;28;21177;-72
2023/01/09 11:44:31;;;;;;;8.98;4.70;;;7.10;99.90;;;;;;4955385;28;20772;-71
2023/01/09 11:46:58;;;;;;;11.02;5.53;;;7.30;99.90;;;;;;4956043;28;20882;-70
2023/01/09 11:49:25;;;;;;;12.98;5.95;;;7.30;99.90;;;;;;4957948;28;20435;-71
2023/01/09 11:52:18;;;;;;;11.02;4.93;;;7.20;99.90;;;;;;4957105;28;20420;-72
2023/01/09 11:54:55;;;;;;;9.73;5.18;;;7.00;99.90;;;;;;4952727;28;20524;-72
2023/01/09 11:57:23;;;;;;;8.30;5.10;;;7.10;99.90;;;;;;4930406;28;20927;-71
2023/01/09 11:59:49;;;;;;;10.65;5.45;;;7.00;99.90;;;;;;4957647;28;20500;-70
2023/01/09 12:02:37;;;;;;;12.38;6.07;;;7.00;99.90;;;;;;4964262;28;20547;-72
2023/01/09 12:05:27;;;;;;;7.43;5.65;;;6.90;99.90;;;;;;4955711;28;20475;-70
2023/01/09 12:08:05;;;;;;;11.68;5.80;;;7.10;99.90;;;;;;4941433;28;20424;-71
2023/01/09 12:10:49;;;;;;;10.70;6.22;;;7.10;99.90;;;;;;4955866;28;20456;-71
2023/01/09 12:13:41;;;;;;;9.93;6.55;;;7.00;99.90;;;;;;4954539;28;20439;-71
2023/01/09 12:16:31;;;;;;;10.80;6.35;;;7.30;99.90;;;;;;4956939;28;20495;-71
2023/01/09 12:19:26;;;;;;;9.83;6.33;;;7.10;99.90;;;;;;4937789;28;20535;-71
2023/01/09 12:22:11;;;;;;;12.80;6.75;;;7.40;99.90;;;;;;4930118;28;20439;-70
2023/01/09 12:24:46;;;;;;;11.55;6.95;;;7.40;99.90;;;;;;4959368;28;20451;-71
2023/01/09 12:27:36;;;;;;;12.63;7.35;;;7.20;99.90;;;;;;4968288;28;20499;-71
2023/01/09 12:30:20;;;;;;;10.05;7.72;;;7.10;99.90;;;;;;4954466;28;20881;-71
2023/01/09 12:32:51;;;;;;;10.02;7.40;;;7.20;99.90;;;;;;4955454;28;22471;-72
2023/01/09 12:35:34;;;;;;;12.50;7.70;;;7.40;99.90;;;;;;4951486;28;20487;-71
2023/01/09 12:38:20;;;;;;;8.98;7.30;;;7.30;99.90;;;;;;4952410;28;20431;-72
2023/01/09 12:40:49;;;;;;;11.25;8.30;;;7.50;99.90;;;;;;4947223;28;20432;-71
2023/01/09 12:43:19;;;;;;;11.63;8.80;;;7.50;99.90;;;;;;4953667;28;21020;-72
2023/01/09 12:46:03;;;;;;;9.73;7.80;;;7.30;99.90;;;;;;4954057;28;20531;-72
2023/01/09 12:48:51;;;;;;;11.30;8.40;;;7.30;99.90;;;;;;4955583;28;20404;-71
2023/01/09 12:51:26;;;;;;;11.07;8.10;;;7.50;99.90;;;;;;4955044;28;20435;-71
2023/01/09 12:54:07;;;;;;;14.52;9.05;;;7.50;99.90;;;;;;4954801;28;20436;-71
2023/01/09 12:56:39;;;;;;;11.57;8.52;;;7.50;99.90;;;;;;4951333;28;20430;-72
2023/01/09 12:59:30;;;;;;;13.82;8.48;;;7.60;99.90;;;;;;4956766;28;20428;-72
2023/01/09 13:02:22;;;;;;;10.70;8.88;;;7.60;99.90;;;;;;4954270;28;20471;-71
2023/01/09 13:05:02;;;;;;;11.48;8.30;;;7.80;99.90;;;;;;4947056;28;20775;-71
2023/01/09 13:07:43;;;;;;;11.05;8.50;;;7.60;99.90;;;;;;4953865;28;20548;-71
2023/01/09 13:10:21;;;;;;;12.52;8.60;;;7.60;99.90;;;;;;4950305;28;20431;-71
2023/01/09 13:12:49;;;;;;;13.02;8.90;;;7.80;99.90;;;;;;4948959;28;20439;-70
2023/01/09 13:15:30;;;;;;;12.32;8.13;;;7.70;99.90;;;;;;4959111;28;20431;-72
2023/01/09 13:18:12;;;;;;;13.85;8.68;;;7.90;99.90;;;;;;4959062;28;20534;-71
2023/01/09 13:20:46;;;;;;;9.43;7.43;;;8.10;99.90;;;;;;4957815;28;20432;-70
2023/01/09 13:23:32;;;;;;;11.52;7.50;;;8.10;99.90;;;;;;4956147;28;20439;-70
2023/01/09 13:26:01;;;;;;;12.07;7.18;;;8.10;99.90;;;;;;4956971;28;20796;-69
2023/01/09 13:28:33;;;;;;;10.32;6.82;;;7.80;99.90;;;;;;4960141;28;20511;-70